sensor_id;sensor_type;location;lat;lon;timestamp;temperature;humidity
19007;DHT22;9636;47.382;8.480;2023-09-07T00:01:29;25.70;96.30
19007;DHT22;9636;47.382;8.480;2023-09-07T00:03:56;25.70;96.30
19007;DHT22;9636;47.382;8.480;2023-09-07T00:06:23;25.70;96.30
19007;DHT22;9636;47.382;8.480;2023-09-07T00:08:51;25.70;96.40
19007;DHT22;9636;47.382;8.480;2023-09-07T00:11:18;25.60;96.30
19007;DHT22;9636;47.382;8.480;2023-09-07T00:13:45;25.60;96.30
19007;DHT22;9636;47.382;8.480;2023-09-07T00:16:12;25.60;96.40
19007;DHT22;9636;47.382;8.480;2023-09-07T00:18:38;25.60;96.30
19007;DHT22;9636;47.382;8.480;2023-09-07T00:21:05;25.60;96.40
19007;DHT22;9636;47.382;8.480;2023-09-07T00:23:32;25.50;96.40
19007;DHT22;9636;47.382;8.480;2023-09-07T00:26:00;25.50;96.40
19007;DHT22;9636;47.382;8.480;2023-09-07T00:28:27;25.50;96.40
19007;DHT22;9636;47.382;8.480;2023-09-07T00:30:54;25.40;96.40
19007;DHT22;9636;47.382;8.480;2023-09-07T00:33:21;25.40;96.40
19007;DHT22;9636;47.382;8.480;2023-09-07T00:35:48;25.40;96.40
19007;DHT22;9636;47.382;8.480;2023-09-07T00:38:14;25.40;96.40
19007;DHT22;9636;47.382;8.480;2023-09-07T00:40:43;25.40;96.40
19007;DHT22;9636;47.382;8.480;2023-09-07T00:43:12;25.40;96.50
19007;DHT22;9636;47.382;8.480;2023-09-07T00:45:39;25.30;96.50
19007;DHT22;9636;47.382;8.480;2023-09-07T00:48:06;25.30;96.50
19007;DHT22;9636;47.382;8.480;2023-09-07T00:50:33;25.30;96.50
19007;DHT22;9636;47.382;8.480;2023-09-07T00:53:00;25.30;96.50
19007;DHT22;9636;47.382;8.480;2023-09-07T00:55:28;25.30;96.50
19007;DHT22;9636;47.382;8.480;2023-09-07T00:57:58;25.20;96.40
19007;DHT22;9636;47.382;8.480;2023-09-07T01:00:26;25.20;96.50
19007;DHT22;9636;47.382;8.480;2023-09-07T01:02:53;25.20;96.50
19007;DHT22;9636;47.382;8.480;2023-09-07T01:05:22;25.20;96.50
19007;DHT22;9636;47.382;8.480;2023-09-07T01:07:54;25.20;96.80
19007;DHT22;9636;47.382;8.480;2023-09-07T01:10:21;25.20;96.50
19007;DHT22;9636;47.382;8.480;2023-09-07T01:12:48;25.20;96.50
19007;DHT22;9636;47.382;8.480;2023-09-07T01:15:15;25.10;96.50
19007;DHT22;9636;47.382;8.480;2023-09-07T01:17:44;25.10;96.50
19007;DHT22;9636;47.382;8.480;2023-09-07T01:20:13;25.10;96.50
19007;DHT22;9636;47.382;8.480;2023-09-07T01:22:43;25.00;96.50
19007;DHT22;9636;47.382;8.480;2023-09-07T01:25:11;25.00;96.50
19007;DHT22;9636;47.382;8.480;2023-09-07T01:27:38;25.00;96.50
19007;DHT22;9636;47.382;8.480;2023-09-07T01:30:06;25.00;96.60
19007;DHT22;9636;47.382;8.480;2023-09-07T01:32:33;25.00;96.50
19007;DHT22;9636;47.382;8.480;2023-09-07T01:35:01;25.00;96.60
19007;DHT22;9636;47.382;8.480;2023-09-07T01:37:31;24.90;96.60
19007;DHT22;9636;47.382;8.480;2023-09-07T01:39:59;24.90;96.50
19007;DHT22;9636;47.382;8.480;2023-09-07T01:42:26;24.90;96.60
19007;DHT22;9636;47.382;8.480;2023-09-07T01:44:53;24.90;96.60
19007;DHT22;9636;47.382;8.480;2023-09-07T01:47:20;24.90;96.60
19007;DHT22;9636;47.382;8.480;2023-09-07T01:49:46;24.80;96.60
19007;DHT22;9636;47.382;8.480;2023-09-07T01:52:13;24.80;96.60
19007;DHT22;9636;47.382;8.480;2023-09-07T01:54:40;24.80;96.60
19007;DHT22;9636;47.382;8.480;2023-09-07T01:57:08;24.80;96.60
19007;DHT22;9636;47.382;8.480;2023-09-07T01:59:35;24.80;96.60
19007;DHT22;9636;47.382;8.480;2023-09-07T02:02:00;24.70;96.60
19007;DHT22;9636;47.382;8.480;2023-09-07T02:04:27;24.70;96.60
19007;DHT22;9636;47.382;8.480;2023-09-07T02:06:54;24.70;96.60
19007;DHT22;9636;47.382;8.480;2023-09-07T02:09:21;24.70;96.70
19007;DHT22;9636;47.382;8.480;2023-09-07T02:11:47;24.60;96.60
19007;DHT22;9636;47.382;8.480;2023-09-07T02:14:16;24.60;96.60
19007;DHT22;9636;47.382;8.480;2023-09-07T02:16:42;24.60;96.70
19007;DHT22;9636;47.382;8.480;2023-09-07T02:19:09;24.60;96.70
19007;DHT22;9636;47.382;8.480;2023-09-07T02:21:36;24.60;96.70
19007;DHT22;9636;47.382;8.480;2023-09-07T02:24:03;24.60;96.70
19007;DHT22;9636;47.382;8.480;2023-09-07T02:26:30;24.60;96.70
19007;DHT22;9636;47.382;8.480;2023-09-07T02:28:57;24.60;96.70
19007;DHT22;9636;47.382;8.480;2023-09-07T02:31:25;24.50;96.70
19007;DHT22;9636;47.382;8.480;2023-09-07T02:33:52;24.50;96.70
19007;DHT22;9636;47.382;8.480;2023-09-07T02:36:19;24.50;96.70
19007;DHT22;9636;47.382;8.480;2023-09-07T02:38:46;24.40;96.70
19007;DHT22;9636;47.382;8.480;2023-09-07T02:41:12;24.40;96.70
19007;DHT22;9636;47.382;8.480;2023-09-07T02:43:39;24.40;96.70
19007;DHT22;9636;47.382;8.480;2023-09-07T02:46:06;24.40;96.70
19007;DHT22;9636;47.382;8.480;2023-09-07T02:48:34;24.40;96.80
19007;DHT22;9636;47.382;8.480;2023-09-07T02:51:01;24.40;96.80
19007;DHT22;9636;47.382;8.480;2023-09-07T02:53:28;24.40;96.80
19007;DHT22;9636;47.382;8.480;2023-09-07T02:55:55;24.30;96.70
19007;DHT22;9636;47.382;8.480;2023-09-07T02:58:23;24.30;96.80
19007;DHT22;9636;47.382;8.480;2023-09-07T03:00:50;24.30;96.80
19007;DHT22;9636;47.382;8.480;2023-09-07T03:03:17;24.30;96.80
19007;DHT22;9636;47.382;8.480;2023-09-07T03:05:45;24.30;96.80
19007;DHT22;9636;47.382;8.480;2023-09-07T03:08:12;24.30;96.80
19007;DHT22;9636;47.382;8.480;2023-09-07T03:10:39;24.20;96.80
19007;DHT22;9636;47.382;8.480;2023-09-07T03:13:06;24.20;96.80
19007;DHT22;9636;47.382;8.480;2023-09-07T03:15:33;24.10;96.80
19007;DHT22;9636;47.382;8.480;2023-09-07T03:18:00;24.20;96.80
19007;DHT22;9636;47.382;8.480;2023-09-07T03:20:27;24.10;96.80
19007;DHT22;9636;47.382;8.480;2023-09-07T03:22:55;24.10;96.80
19007;DHT22;9636;47.382;8.480;2023-09-07T03:25:23;24.10;96.80
19007;DHT22;9636;47.382;8.480;2023-09-07T03:27:50;24.10;96.90
19007;DHT22;9636;47.382;8.480;2023-09-07T03:30:16;24.00;96.80
19007;DHT22;9636;47.382;8.480;2023-09-07T03:32:43;24.10;96.90
19007;DHT22;9636;47.382;8.480;2023-09-07T03:35:11;24.00;96.90
19007;DHT22;9636;47.382;8.480;2023-09-07T03:37:38;24.00;96.90
19007;DHT22;9636;47.382;8.480;2023-09-07T03:40:08;24.00;96.90
19007;DHT22;9636;47.382;8.480;2023-09-07T03:42:35;23.90;96.90
19007;DHT22;9636;47.382;8.480;2023-09-07T03:45:03;23.90;96.90
19007;DHT22;9636;47.382;8.480;2023-09-07T03:47:30;23.90;96.90
19007;DHT22;9636;47.382;8.480;2023-09-07T03:49:57;23.90;96.90
19007;DHT22;9636;47.382;8.480;2023-09-07T03:52:24;23.90;96.90
19007;DHT22;9636;47.382;8.480;2023-09-07T03:54:53;23.90;96.90
19007;DHT22;9636;47.382;8.480;2023-09-07T03:57:22;23.90;96.90
19007;DHT22;9636;47.382;8.480;2023-09-07T03:59:49;23.80;96.90
19007;DHT22;9636;47.382;8.480;2023-09-07T04:02:16;23.80;96.90
19007;DHT22;9636;47.382;8.480;2023-09-07T04:04:48;23.80;96.90
19007;DHT22;9636;47.382;8.480;2023-09-07T04:07:14;23.80;96.90
19007;DHT22;9636;47.382;8.480;2023-09-07T04:09:41;23.80;96.90
19007;DHT22;9636;47.382;8.480;2023-09-07T04:12:09;23.80;96.90
19007;DHT22;9636;47.382;8.480;2023-09-07T04:14:37;23.80;96.90
19007;DHT22;9636;47.382;8.480;2023-09-07T04:17:04;23.70;97.00
19007;DHT22;9636;47.382;8.480;2023-09-07T04:19:31;23.70;97.00
19007;DHT22;9636;47.382;8.480;2023-09-07T04:21:58;23.70;97.00
19007;DHT22;9636;47.382;8.480;2023-09-07T04:24:25;23.70;97.00
19007;DHT22;9636;47.382;8.480;2023-09-07T04:26:52;23.70;97.00
19007;DHT22;9636;47.382;8.480;2023-09-07T04:29:19;23.60;97.00
19007;DHT22;9636;47.382;8.480;2023-09-07T04:31:47;23.60;97.00
19007;DHT22;9636;47.382;8.480;2023-09-07T04:34:14;23.60;97.00
19007;DHT22;9636;47.382;8.480;2023-09-07T04:36:41;23.60;97.00
19007;DHT22;9636;47.382;8.480;2023-09-07T04:39:08;23.60;97.00
19007;DHT22;9636;47.382;8.480;2023-09-07T04:41:34;23.50;97.00
19007;DHT22;9636;47.382;8.480;2023-09-07T04:44:01;23.50;97.00
19007;DHT22;9636;47.382;8.480;2023-09-07T04:46:28;23.50;97.00
19007;DHT22;9636;47.382;8.480;2023-09-07T04:48:56;23.50;97.00
19007;DHT22;9636;47.382;8.480;2023-09-07T04:51:23;23.50;97.00
19007;DHT22;9636;47.382;8.480;2023-09-07T04:53:51;23.50;97.00
19007;DHT22;9636;47.382;8.480;2023-09-07T04:56:18;23.50;97.00
19007;DHT22;9636;47.382;8.480;2023-09-07T04:58:45;23.40;97.00
19007;DHT22;9636;47.382;8.480;2023-09-07T05:01:12;23.40;97.00
19007;DHT22;9636;47.382;8.480;2023-09-07T05:03:39;23.40;97.00
19007;DHT22;9636;47.382;8.480;2023-09-07T05:06:07;23.40;97.00
19007;DHT22;9636;47.382;8.480;2023-09-07T05:08:34;23.40;97.00
19007;DHT22;9636;47.382;8.480;2023-09-07T05:11:02;23.40;97.00
19007;DHT22;9636;47.382;8.480;2023-09-07T05:13:30;23.40;97.00
19007;DHT22;9636;47.382;8.480;2023-09-07T05:15:59;23.40;97.00
19007;DHT22;9636;47.382;8.480;2023-09-07T05:18:26;23.40;97.00
19007;DHT22;9636;47.382;8.480;2023-09-07T05:20:53;23.40;97.00
19007;DHT22;9636;47.382;8.480;2023-09-07T05:23:22;23.40;97.00
19007;DHT22;9636;47.382;8.480;2023-09-07T05:25:53;23.40;96.90
19007;DHT22;9636;47.382;8.480;2023-09-07T05:28:21;23.40;96.90
19007;DHT22;9636;47.382;8.480;2023-09-07T05:30:48;23.40;96.90
19007;DHT22;9636;47.382;8.480;2023-09-07T05:33:17;23.50;96.90
19007;DHT22;9636;47.382;8.480;2023-09-07T05:35:44;23.50;96.80
19007;DHT22;9636;47.382;8.480;2023-09-07T05:38:12;23.60;96.80
19007;DHT22;9636;47.382;8.480;2023-09-07T05:40:42;23.60;96.80
19007;DHT22;9636;47.382;8.480;2023-09-07T05:43:10;23.60;96.70
19007;DHT22;9636;47.382;8.480;2023-09-07T05:45:39;23.70;96.60
19007;DHT22;9636;47.382;8.480;2023-09-07T05:48:06;23.80;96.60
19007;DHT22;9636;47.382;8.480;2023-09-07T05:50:34;23.90;96.50
19007;DHT22;9636;47.382;8.480;2023-09-07T05:53:01;23.90;96.50
19007;DHT22;9636;47.382;8.480;2023-09-07T05:55:29;24.00;96.30
19007;DHT22;9636;47.382;8.480;2023-09-07T05:57:58;24.10;96.30
19007;DHT22;9636;47.382;8.480;2023-09-07T06:00:25;24.20;96.20
19007;DHT22;9636;47.382;8.480;2023-09-07T06:02:52;24.30;96.10
19007;DHT22;9636;47.382;8.480;2023-09-07T06:05:19;24.40;96.00
19007;DHT22;9636;47.382;8.480;2023-09-07T06:07:46;24.50;95.90
19007;DHT22;9636;47.382;8.480;2023-09-07T06:10:13;24.60;95.90
19007;DHT22;9636;47.382;8.480;2023-09-07T06:12:40;24.80;95.80
19007;DHT22;9636;47.382;8.480;2023-09-07T06:15:09;24.90;95.70
19007;DHT22;9636;47.382;8.480;2023-09-07T06:17:36;25.00;95.60
19007;DHT22;9636;47.382;8.480;2023-09-07T06:20:03;25.10;95.50
19007;DHT22;9636;47.382;8.480;2023-09-07T06:22:31;25.20;95.40
19007;DHT22;9636;47.382;8.480;2023-09-07T06:24:58;25.40;95.40
19007;DHT22;9636;47.382;8.480;2023-09-07T06:27:25;25.50;95.20
19007;DHT22;9636;47.382;8.480;2023-09-07T06:29:52;25.60;95.20
19007;DHT22;9636;47.382;8.480;2023-09-07T06:32:20;25.70;95.20
19007;DHT22;9636;47.382;8.480;2023-09-07T06:34:47;25.80;95.20
19007;DHT22;9636;47.382;8.480;2023-09-07T06:37:13;25.90;95.10
19007;DHT22;9636;47.382;8.480;2023-09-07T06:39:40;26.00;95.10
19007;DHT22;9636;47.382;8.480;2023-09-07T06:42:09;26.20;95.00
19007;DHT22;9636;47.382;8.480;2023-09-07T06:44:36;26.20;95.00
19007;DHT22;9636;47.382;8.480;2023-09-07T06:47:03;26.30;95.00
19007;DHT22;9636;47.382;8.480;2023-09-07T06:49:31;26.30;94.90
19007;DHT22;9636;47.382;8.480;2023-09-07T06:51:58;26.40;94.90
19007;DHT22;9636;47.382;8.480;2023-09-07T06:54:25;26.40;94.80
19007;DHT22;9636;47.382;8.480;2023-09-07T06:56:51;26.50;94.80
19007;DHT22;9636;47.382;8.480;2023-09-07T06:59:18;26.60;94.70
19007;DHT22;9636;47.382;8.480;2023-09-07T07:01:45;26.70;94.60
19007;DHT22;9636;47.382;8.480;2023-09-07T07:04:12;26.80;94.50
19007;DHT22;9636;47.382;8.480;2023-09-07T07:06:40;26.90;94.40
19007;DHT22;9636;47.382;8.480;2023-09-07T07:09:07;27.00;94.30
19007;DHT22;9636;47.382;8.480;2023-09-07T07:11:34;27.10;94.20
19007;DHT22;9636;47.382;8.480;2023-09-07T07:14:01;27.20;94.10
19007;DHT22;9636;47.382;8.480;2023-09-07T07:16:28;27.30;94.00
19007;DHT22;9636;47.382;8.480;2023-09-07T07:18:55;27.30;93.90
19007;DHT22;9636;47.382;8.480;2023-09-07T07:21:21;27.40;93.80
19007;DHT22;9636;47.382;8.480;2023-09-07T07:23:50;27.50;93.80
19007;DHT22;9636;47.382;8.480;2023-09-07T07:26:17;27.60;93.70
19007;DHT22;9636;47.382;8.480;2023-09-07T07:28:44;27.70;93.60
19007;DHT22;9636;47.382;8.480;2023-09-07T07:31:10;27.70;93.50
19007;DHT22;9636;47.382;8.480;2023-09-07T07:33:37;27.80;93.50
19007;DHT22;9636;47.382;8.480;2023-09-07T07:36:04;27.90;93.40
19007;DHT22;9636;47.382;8.480;2023-09-07T07:38:31;28.00;93.30
19007;DHT22;9636;47.382;8.480;2023-09-07T07:40:59;28.10;93.20
19007;DHT22;9636;47.382;8.480;2023-09-07T07:43:26;28.10;93.10
19007;DHT22;9636;47.382;8.480;2023-09-07T07:45:54;28.20;93.00
19007;DHT22;9636;47.382;8.480;2023-09-07T07:48:21;28.30;93.00
19007;DHT22;9636;47.382;8.480;2023-09-07T07:50:47;28.40;93.00
19007;DHT22;9636;47.382;8.480;2023-09-07T07:53:14;28.40;92.90
19007;DHT22;9636;47.382;8.480;2023-09-07T07:55:41;28.50;92.80
19007;DHT22;9636;47.382;8.480;2023-09-07T07:58:10;28.50;92.80
19007;DHT22;9636;47.382;8.480;2023-09-07T08:00:37;28.60;92.70
19007;DHT22;9636;47.382;8.480;2023-09-07T08:03:04;28.70;92.60
19007;DHT22;9636;47.382;8.480;2023-09-07T08:05:33;28.70;92.60
19007;DHT22;9636;47.382;8.480;2023-09-07T08:08:00;28.80;92.90
19007;DHT22;9636;47.382;8.480;2023-09-07T08:10:28;28.90;92.50
19007;DHT22;9636;47.382;8.480;2023-09-07T08:12:55;28.90;92.50
19007;DHT22;9636;47.382;8.480;2023-09-07T08:15:23;29.00;92.50
19007;DHT22;9636;47.382;8.480;2023-09-07T08:17:50;29.00;92.40
19007;DHT22;9636;47.382;8.480;2023-09-07T08:20:17;29.10;92.40
19007;DHT22;9636;47.382;8.480;2023-09-07T08:22:44;29.10;92.30
19007;DHT22;9636;47.382;8.480;2023-09-07T08:25:12;29.20;92.20
19007;DHT22;9636;47.382;8.480;2023-09-07T08:27:39;29.30;92.20
19007;DHT22;9636;47.382;8.480;2023-09-07T08:30:11;29.40;92.20
19007;DHT22;9636;47.382;8.480;2023-09-07T08:32:39;29.40;92.10
19007;DHT22;9636;47.382;8.480;2023-09-07T08:35:07;29.40;92.10
19007;DHT22;9636;47.382;8.480;2023-09-07T08:37:34;29.50;92.10
19007;DHT22;9636;47.382;8.480;2023-09-07T08:40:01;29.60;92.10
19007;DHT22;9636;47.382;8.480;2023-09-07T08:42:30;29.60;92.00
19007;DHT22;9636;47.382;8.480;2023-09-07T08:44:57;29.70;92.00
19007;DHT22;9636;47.382;8.480;2023-09-07T08:47:28;29.70;91.80
19007;DHT22;9636;47.382;8.480;2023-09-07T08:49:58;29.80;91.80
19007;DHT22;9636;47.382;8.480;2023-09-07T08:52:25;29.80;91.90
19007;DHT22;9636;47.382;8.480;2023-09-07T08:54:52;29.90;91.90
19007;DHT22;9636;47.382;8.480;2023-09-07T08:57:21;29.90;91.80
19007;DHT22;9636;47.382;8.480;2023-09-07T08:59:49;30.00;91.80
19007;DHT22;9636;47.382;8.480;2023-09-07T09:02:16;30.00;91.70
19007;DHT22;9636;47.382;8.480;2023-09-07T09:04:43;30.00;91.60
19007;DHT22;9636;47.382;8.480;2023-09-07T09:07:11;30.00;91.70
19007;DHT22;9636;47.382;8.480;2023-09-07T09:09:38;30.10;91.70
19007;DHT22;9636;47.382;8.480;2023-09-07T09:12:08;30.10;91.70
19007;DHT22;9636;47.382;8.480;2023-09-07T09:14:35;30.10;91.90
19007;DHT22;9636;47.382;8.480;2023-09-07T09:17:02;30.20;91.60
19007;DHT22;9636;47.382;8.480;2023-09-07T09:19:33;30.20;91.60
19007;DHT22;9636;47.382;8.480;2023-09-07T09:22:00;30.30;91.60
19007;DHT22;9636;47.382;8.480;2023-09-07T09:24:33;30.30;91.60
19007;DHT22;9636;47.382;8.480;2023-09-07T09:27:00;30.40;91.60
19007;DHT22;9636;47.382;8.480;2023-09-07T09:29:27;30.40;91.50
19007;DHT22;9636;47.382;8.480;2023-09-07T09:31:54;30.40;91.40
19007;DHT22;9636;47.382;8.480;2023-09-07T09:34:21;30.50;91.50
19007;DHT22;9636;47.382;8.480;2023-09-07T09:36:48;30.50;91.30
19007;DHT22;9636;47.382;8.480;2023-09-07T09:39:22;30.50;91.30
19007;DHT22;9636;47.382;8.480;2023-09-07T09:41:51;30.60;91.30
19007;DHT22;9636;47.382;8.480;2023-09-07T09:44:21;30.70;91.30
19007;DHT22;9636;47.382;8.480;2023-09-07T09:46:51;30.70;91.20
19007;DHT22;9636;47.382;8.480;2023-09-07T09:49:20;30.80;91.30
19007;DHT22;9636;47.382;8.480;2023-09-07T09:51:48;30.80;91.30
19007;DHT22;9636;47.382;8.480;2023-09-07T09:54:16;30.80;91.30
19007;DHT22;9636;47.382;8.480;2023-09-07T09:56:43;30.80;91.30
19007;DHT22;9636;47.382;8.480;2023-09-07T09:59:11;30.80;91.30
19007;DHT22;9636;47.382;8.480;2023-09-07T10:01:41;30.90;91.30
19007;DHT22;9636;47.382;8.480;2023-09-07T10:04:11;30.90;91.30
19007;DHT22;9636;47.382;8.480;2023-09-07T10:06:38;30.90;91.30
19007;DHT22;9636;47.382;8.480;2023-09-07T10:09:06;30.90;91.40
19007;DHT22;9636;47.382;8.480;2023-09-07T10:11:38;30.90;91.50
19007;DHT22;9636;47.382;8.480;2023-09-07T10:14:06;30.80;91.30
19007;DHT22;9636;47.382;8.480;2023-09-07T10:16:44;30.90;91.40
19007;DHT22;9636;47.382;8.480;2023-09-07T10:19:15;30.90;91.50
19007;DHT22;9636;47.382;8.480;2023-09-07T10:21:42;30.90;91.50
19007;DHT22;9636;47.382;8.480;2023-09-07T10:24:10;30.90;91.50
19007;DHT22;9636;47.382;8.480;2023-09-07T10:26:36;30.90;91.50
19007;DHT22;9636;47.382;8.480;2023-09-07T10:29:03;30.90;91.50
19007;DHT22;9636;47.382;8.480;2023-09-07T10:31:31;30.90;91.40
19007;DHT22;9636;47.382;8.480;2023-09-07T10:34:09;31.00;91.40
19007;DHT22;9636;47.382;8.480;2023-09-07T10:36:37;31.00;91.40
19007;DHT22;9636;47.382;8.480;2023-09-07T10:39:05;31.00;91.50
19007;DHT22;9636;47.382;8.480;2023-09-07T10:41:40;31.00;91.30
19007;DHT22;9636;47.382;8.480;2023-09-07T10:44:08;31.10;91.50
19007;DHT22;9636;47.382;8.480;2023-09-07T10:46:37;31.10;91.50
19007;DHT22;9636;47.382;8.480;2023-09-07T10:49:07;31.10;91.50
19007;DHT22;9636;47.382;8.480;2023-09-07T10:51:40;31.10;91.40
19007;DHT22;9636;47.382;8.480;2023-09-07T10:54:14;31.10;91.40
19007;DHT22;9636;47.382;8.480;2023-09-07T10:56:42;31.10;91.50
19007;DHT22;9636;47.382;8.480;2023-09-07T10:59:09;31.10;91.50
19007;DHT22;9636;47.382;8.480;2023-09-07T11:01:36;31.20;91.50
19007;DHT22;9636;47.382;8.480;2023-09-07T11:04:03;31.20;91.60
19007;DHT22;9636;47.382;8.480;2023-09-07T11:06:31;31.20;92.00
19007;DHT22;9636;47.382;8.480;2023-09-07T11:09:01;31.20;91.60
19007;DHT22;9636;47.382;8.480;2023-09-07T11:11:31;31.20;91.40
19007;DHT22;9636;47.382;8.480;2023-09-07T11:13:59;31.20;91.30
19007;DHT22;9636;47.382;8.480;2023-09-07T11:16:26;31.20;91.30
19007;DHT22;9636;47.382;8.480;2023-09-07T11:18:53;31.30;91.30
19007;DHT22;9636;47.382;8.480;2023-09-07T11:21:20;31.30;91.50
19007;DHT22;9636;47.382;8.480;2023-09-07T11:23:47;31.30;91.50
19007;DHT22;9636;47.382;8.480;2023-09-07T11:26:16;31.30;91.60
19007;DHT22;9636;47.382;8.480;2023-09-07T11:28:45;31.40;91.60
19007;DHT22;9636;47.382;8.480;2023-09-07T11:31:12;31.40;91.60
19007;DHT22;9636;47.382;8.480;2023-09-07T11:33:41;31.40;91.50
19007;DHT22;9636;47.382;8.480;2023-09-07T11:36:07;31.40;91.60
19007;DHT22;9636;47.382;8.480;2023-09-07T11:38:37;31.40;91.60
19007;DHT22;9636;47.382;8.480;2023-09-07T11:41:04;31.40;91.60
19007;DHT22;9636;47.382;8.480;2023-09-07T11:43:32;31.40;91.50
19007;DHT22;9636;47.382;8.480;2023-09-07T11:45:59;31.40;91.40
19007;DHT22;9636;47.382;8.480;2023-09-07T11:48:29;31.50;91.60
19007;DHT22;9636;47.382;8.480;2023-09-07T11:50:57;31.50;91.60
19007;DHT22;9636;47.382;8.480;2023-09-07T11:53:25;31.50;91.40
19007;DHT22;9636;47.382;8.480;2023-09-07T11:55:51;31.50;91.60
19007;DHT22;9636;47.382;8.480;2023-09-07T11:58:18;31.50;91.50
19007;DHT22;9636;47.382;8.480;2023-09-07T12:00:46;31.50;91.50
19007;DHT22;9636;47.382;8.480;2023-09-07T12:03:13;31.50;91.60
19007;DHT22;9636;47.382;8.480;2023-09-07T12:05:40;31.50;91.70
19007;DHT22;9636;47.382;8.480;2023-09-07T12:08:09;31.60;91.70
19007;DHT22;9636;47.382;8.480;2023-09-07T12:10:36;31.60;91.40
19007;DHT22;9636;47.382;8.480;2023-09-07T12:13:03;31.60;91.40
19007;DHT22;9636;47.382;8.480;2023-09-07T12:15:30;31.60;91.40
19007;DHT22;9636;47.382;8.480;2023-09-07T12:17:58;31.60;91.40
19007;DHT22;9636;47.382;8.480;2023-09-07T12:20:26;31.60;91.90
19007;DHT22;9636;47.382;8.480;2023-09-07T12:22:52;31.60;91.60
19007;DHT22;9636;47.382;8.480;2023-09-07T12:25:19;31.60;91.60
19007;DHT22;9636;47.382;8.480;2023-09-07T12:27:46;31.70;91.70
19007;DHT22;9636;47.382;8.480;2023-09-07T12:30:13;31.70;91.80
19007;DHT22;9636;47.382;8.480;2023-09-07T12:32:40;31.70;91.40
19007;DHT22;9636;47.382;8.480;2023-09-07T12:35:09;31.70;91.40
19007;DHT22;9636;47.382;8.480;2023-09-07T12:37:35;31.70;91.50
19007;DHT22;9636;47.382;8.480;2023-09-07T12:40:03;31.70;91.70
19007;DHT22;9636;47.382;8.480;2023-09-07T12:42:38;31.70;91.70
19007;DHT22;9636;47.382;8.480;2023-09-07T12:45:06;31.70;91.80
19007;DHT22;9636;47.382;8.480;2023-09-07T12:47:33;31.70;91.80
19007;DHT22;9636;47.382;8.480;2023-09-07T12:50:00;31.70;91.80
19007;DHT22;9636;47.382;8.480;2023-09-07T12:52:29;31.70;91.80
19007;DHT22;9636;47.382;8.480;2023-09-07T12:54:55;31.70;91.60
19007;DHT22;9636;47.382;8.480;2023-09-07T12:57:22;31.70;91.80
19007;DHT22;9636;47.382;8.480;2023-09-07T12:59:49;31.80;91.90
19007;DHT22;9636;47.382;8.480;2023-09-07T13:02:16;31.70;91.90
19007;DHT22;9636;47.382;8.480;2023-09-07T13:04:42;31.80;91.90
19007;DHT22;9636;47.382;8.480;2023-09-07T13:07:09;31.80;92.00
19007;DHT22;9636;47.382;8.480;2023-09-07T13:09:37;31.80;91.90
19007;DHT22;9636;47.382;8.480;2023-09-07T13:12:05;31.80;92.00
19007;DHT22;9636;47.382;8.480;2023-09-07T13:14:32;31.80;92.00
19007;DHT22;9636;47.382;8.480;2023-09-07T13:16:59;31.80;92.00
19007;DHT22;9636;47.382;8.480;2023-09-07T13:19:25;31.80;92.00
19007;DHT22;9636;47.382;8.480;2023-09-07T13:21:52;31.80;92.00
19007;DHT22;9636;47.382;8.480;2023-09-07T13:24:19;31.90;92.00
19007;DHT22;9636;47.382;8.480;2023-09-07T13:26:51;31.90;92.00
19007;DHT22;9636;47.382;8.480;2023-09-07T13:29:18;31.90;92.00
19007;DHT22;9636;47.382;8.480;2023-09-07T13:31:44;31.90;92.00
19007;DHT22;9636;47.382;8.480;2023-09-07T13:34:11;31.90;92.10
19007;DHT22;9636;47.382;8.480;2023-09-07T13:36:38;31.90;92.10
19007;DHT22;9636;47.382;8.480;2023-09-07T13:39:05;31.90;92.10
19007;DHT22;9636;47.382;8.480;2023-09-07T13:41:32;31.90;92.20
19007;DHT22;9636;47.382;8.480;2023-09-07T13:44:00;31.90;92.20
19007;DHT22;9636;47.382;8.480;2023-09-07T13:46:27;31.90;92.20
19007;DHT22;9636;47.382;8.480;2023-09-07T13:48:54;31.90;92.20
19007;DHT22;9636;47.382;8.480;2023-09-07T13:51:21;32.20;91.90
19007;DHT22;9636;47.382;8.480;2023-09-07T13:53:48;32.30;91.50
19007;DHT22;9636;47.382;8.480;2023-09-07T13:56:15;32.20;91.70
19007;DHT22;9636;47.382;8.480;2023-09-07T13:58:42;32.10;91.90
19007;DHT22;9636;47.382;8.480;2023-09-07T14:01:10;32.00;92.10
19007;DHT22;9636;47.382;8.480;2023-09-07T14:03:37;32.00;92.10
19007;DHT22;9636;47.382;8.480;2023-09-07T14:06:04;31.90;92.20
19007;DHT22;9636;47.382;8.480;2023-09-07T14:08:30;31.90;92.20
19007;DHT22;9636;47.382;8.480;2023-09-07T14:10:58;31.90;92.30
19007;DHT22;9636;47.382;8.480;2023-09-07T14:13:25;31.90;92.30
19007;DHT22;9636;47.382;8.480;2023-09-07T14:15:52;31.90;92.30
19007;DHT22;9636;47.382;8.480;2023-09-07T14:18:20;31.90;92.30
19007;DHT22;9636;47.382;8.480;2023-09-07T14:20:47;31.90;92.30
19007;DHT22;9636;47.382;8.480;2023-09-07T14:23:13;31.90;92.30
19007;DHT22;9636;47.382;8.480;2023-09-07T14:25:40;31.90;92.30
19007;DHT22;9636;47.382;8.480;2023-09-07T14:28:10;31.80;92.30
19007;DHT22;9636;47.382;8.480;2023-09-07T14:30:37;31.90;92.40
19007;DHT22;9636;47.382;8.480;2023-09-07T14:33:04;31.80;92.40
19007;DHT22;9636;47.382;8.480;2023-09-07T14:35:33;31.80;92.40
19007;DHT22;9636;47.382;8.480;2023-09-07T14:38:00;31.80;92.40
19007;DHT22;9636;47.382;8.480;2023-09-07T14:40:27;31.80;92.40
19007;DHT22;9636;47.382;8.480;2023-09-07T14:42:54;31.80;92.40
19007;DHT22;9636;47.382;8.480;2023-09-07T14:45:23;31.80;92.30
19007;DHT22;9636;47.382;8.480;2023-09-07T14:47:50;31.80;92.30
19007;DHT22;9636;47.382;8.480;2023-09-07T14:50:17;31.80;92.40
19007;DHT22;9636;47.382;8.480;2023-09-07T14:52:45;31.70;92.40
19007;DHT22;9636;47.382;8.480;2023-09-07T14:55:13;31.70;92.30
19007;DHT22;9636;47.382;8.480;2023-09-07T14:57:40;31.70;92.30
19007;DHT22;9636;47.382;8.480;2023-09-07T15:00:08;31.70;92.40
19007;DHT22;9636;47.382;8.480;2023-09-07T15:02:35;31.70;92.30
19007;DHT22;9636;47.382;8.480;2023-09-07T15:05:01;31.70;92.30
19007;DHT22;9636;47.382;8.480;2023-09-07T15:07:28;31.70;92.30
19007;DHT22;9636;47.382;8.480;2023-09-07T15:09:56;31.80;92.30
19007;DHT22;9636;47.382;8.480;2023-09-07T15:12:23;31.70;92.30
19007;DHT22;9636;47.382;8.480;2023-09-07T15:14:50;31.80;92.30
19007;DHT22;9636;47.382;8.480;2023-09-07T15:17:17;31.80;92.30
19007;DHT22;9636;47.382;8.480;2023-09-07T15:19:44;31.80;92.20
19007;DHT22;9636;47.382;8.480;2023-09-07T15:22:10;31.80;92.30
19007;DHT22;9636;47.382;8.480;2023-09-07T15:24:37;31.80;92.30
19007;DHT22;9636;47.382;8.480;2023-09-07T15:27:09;31.80;92.20
19007;DHT22;9636;47.382;8.480;2023-09-07T15:29:36;31.80;92.20
19007;DHT22;9636;47.382;8.480;2023-09-07T15:32:03;31.80;92.20
19007;DHT22;9636;47.382;8.480;2023-09-07T15:34:31;31.80;92.30
19007;DHT22;9636;47.382;8.480;2023-09-07T15:36:59;31.80;92.30
19007;DHT22;9636;47.382;8.480;2023-09-07T15:39:26;31.80;92.30
19007;DHT22;9636;47.382;8.480;2023-09-07T15:41:52;31.80;92.30
19007;DHT22;9636;47.382;8.480;2023-09-07T15:44:21;31.80;92.30
19007;DHT22;9636;47.382;8.480;2023-09-07T15:46:49;31.80;92.10